createdAt,value
2019-03-22T00:00:28.069Z,7.58
2019-03-22T00:01:35.188Z,8.25
2019-03-22T00:02:41.006Z,8.30
2019-03-22T00:03:46.676Z,8.05
2019-03-22T00:04:52.296Z,8.50
2019-03-22T00:05:57.939Z,7.90
2019-03-22T00:07:03.577Z,8.68
2019-03-22T00:08:09.148Z,7.05
2019-03-22T00:09:15.041Z,8.48
2019-03-22T00:10:20.803Z,7.92
2019-03-22T00:11:27.069Z,8.48
2019-03-22T00:12:32.684Z,9.15
2019-03-22T00:13:38.304Z,8.30
2019-03-22T00:14:43.955Z,8.13
2019-03-22T00:15:49.593Z,8.18
2019-03-22T00:16:55.298Z,7.40
2019-03-22T00:18:00.933Z,8.05
2019-03-22T00:19:06.575Z,8.40
2019-03-22T00:20:12.422Z,8.08
2019-03-22T00:21:17.991Z,8.63
2019-03-22T00:22:23.556Z,7.40
2019-03-22T00:23:29.128Z,8.10
2019-03-22T00:24:34.763Z,8.10
2019-03-22T00:25:40.591Z,7.75
2019-03-22T00:26:46.120Z,7.62
2019-03-22T00:27:51.672Z,7.95
2019-03-22T00:28:57.244Z,7.42
2019-03-22T00:30:04.111Z,7.78
2019-03-22T00:31:09.794Z,8.60
2019-03-22T00:32:15.516Z,8.05
2019-03-22T00:33:21.116Z,7.58
2019-03-22T00:34:26.861Z,8.08
2019-03-22T00:35:32.435Z,9.00
2019-03-22T00:36:38.023Z,7.87
2019-03-22T00:37:43.616Z,8.78
2019-03-22T00:38:49.295Z,8.33
2019-03-22T00:39:54.860Z,8.40
2019-03-22T00:41:00.493Z,8.43
2019-03-22T00:42:06.045Z,7.72
2019-03-22T00:43:11.885Z,8.58
2019-03-22T00:44:17.457Z,8.98
2019-03-22T00:45:23.032Z,7.70
2019-03-22T00:46:28.592Z,8.95
2019-03-22T00:47:34.165Z,8.78
2019-03-22T00:48:39.716Z,9.10
2019-03-22T00:49:45.331Z,8.48
2019-03-22T00:50:50.909Z,9.10
2019-03-22T00:51:56.577Z,8.73
2019-03-22T00:53:02.152Z,8.95
2019-03-22T00:54:07.744Z,9.48
2019-03-22T00:55:13.409Z,8.63
2019-03-22T00:56:18.945Z,8.98
2019-03-22T00:57:28.650Z,9.53
2019-03-22T00:58:34.117Z,10.00
2019-03-22T00:59:39.676Z,8.98
2019-03-22T01:00:45.236Z,8.78
2019-03-22T01:01:50.956Z,8.15
2019-03-22T01:02:56.606Z,8.68
2019-03-22T01:04:02.179Z,8.80
2019-03-22T01:05:08.990Z,8.85
2019-03-22T01:06:17.101Z,9.33
2019-03-22T01:07:22.788Z,9.53
2019-03-22T01:08:28.589Z,9.90
2019-03-22T01:09:34.146Z,8.98
2019-03-22T01:10:39.858Z,9.20
2019-03-22T01:11:45.482Z,9.40
2019-03-22T01:12:51.114Z,9.28
2019-03-22T01:13:56.696Z,9.05
2019-03-22T01:15:02.429Z,8.20
2019-03-22T01:16:09.283Z,8.53
2019-03-22T01:17:14.888Z,9.73
2019-03-22T01:18:20.574Z,9.15
2019-03-22T01:19:26.242Z,9.38
2019-03-22T01:20:31.953Z,9.03
2019-03-22T01:21:37.502Z,8.98
2019-03-22T01:22:43.053Z,9.25
2019-03-22T01:23:48.613Z,8.00
2019-03-22T01:24:54.144Z,8.50
2019-03-22T01:25:59.829Z,8.90
2019-03-22T01:27:06.628Z,9.15
2019-03-22T01:28:12.261Z,9.58
2019-03-22T01:29:17.910Z,8.35
2019-03-22T01:30:23.600Z,8.35
2019-03-22T01:31:29.235Z,9.10
2019-03-22T01:32:34.797Z,9.55
2019-03-22T01:33:40.466Z,8.55
2019-03-22T01:34:46.097Z,9.53
2019-03-22T01:35:51.707Z,9.53
2019-03-22T01:36:57.248Z,9.18
2019-03-22T01:38:02.874Z,8.75
2019-03-22T01:39:08.753Z,8.40
2019-03-22T01:40:16.239Z,9.50
2019-03-22T01:41:21.946Z,8.90
2019-03-22T01:42:27.569Z,8.88
2019-03-22T01:43:33.182Z,9.35
2019-03-22T01:44:39.132Z,8.70
2019-03-22T01:45:44.666Z,8.68
2019-03-22T01:46:50.218Z,8.55
2019-03-22T01:47:55.758Z,8.28
2019-03-22T01:49:01.296Z,9.28
2019-03-22T01:50:08.981Z,9.03
2019-03-22T01:51:14.621Z,8.95
2019-03-22T01:52:20.283Z,9.00
2019-03-22T01:53:25.913Z,8.60
2019-03-22T01:54:31.497Z,8.70
2019-03-22T01:55:37.231Z,8.60
2019-03-22T01:56:42.804Z,9.43
2019-03-22T01:57:53.650Z,8.60
2019-03-22T01:58:55.951Z,8.85
2019-03-22T02:00:01.608Z,8.73
2019-03-22T02:01:07.308Z,8.68
2019-03-22T02:02:12.881Z,9.53
2019-03-22T02:03:18.520Z,10.20
2019-03-22T02:04:24.202Z,8.18
2019-03-22T02:05:29.828Z,8.60
2019-03-22T02:06:35.540Z,8.30
2019-03-22T02:07:41.096Z,8.83
2019-03-22T02:08:46.805Z,9.15
2019-03-22T02:09:52.452Z,9.23
2019-03-22T02:10:58.057Z,10.30
2019-03-22T02:12:03.681Z,9.68
2019-03-22T02:13:09.248Z,9.15
2019-03-22T02:14:15.072Z,9.95
2019-03-22T02:15:21.800Z,9.15
2019-03-22T02:16:27.353Z,10.05
2019-03-22T02:17:32.945Z,9.50
2019-03-22T02:18:38.543Z,9.55
2019-03-22T02:19:44.117Z,9.05
2019-03-22T02:20:50.953Z,9.45
2019-03-22T02:21:56.489Z,9.45
2019-03-22T02:23:02.048Z,9.95
2019-03-22T02:24:07.593Z,9.10
2019-03-22T02:25:14.003Z,9.20
2019-03-22T02:26:19.677Z,10.28
2019-03-22T02:27:25.372Z,9.58
2019-03-22T02:28:31.040Z,9.88
2019-03-22T02:29:36.684Z,10.20
2019-03-22T02:30:42.289Z,9.28
2019-03-22T02:31:47.876Z,9.70
2019-03-22T02:32:53.444Z,9.63
2019-03-22T02:33:59.057Z,9.83
2019-03-22T02:35:05.486Z,9.35
2019-03-22T02:36:11.165Z,9.45
2019-03-22T02:37:16.713Z,9.55
2019-03-22T02:38:22.435Z,9.65
2019-03-22T02:39:28.102Z,10.13
2019-03-22T02:40:33.972Z,9.85
2019-03-22T02:41:39.665Z,9.50
2019-03-22T02:42:45.318Z,9.63
2019-03-22T02:43:54.456Z,9.65
2019-03-22T02:44:58.355Z,9.75
2019-03-22T02:46:03.916Z,9.53
2019-03-22T02:47:09.548Z,10.05
2019-03-22T02:48:15.165Z,9.20
2019-03-22T02:49:20.797Z,8.48
2019-03-22T02:50:26.723Z,9.15
2019-03-22T02:51:32.317Z,9.38
2019-03-22T02:52:38.025Z,8.98
2019-03-22T02:53:43.696Z,9.65
2019-03-22T02:54:49.280Z,9.30
2019-03-22T02:55:55.134Z,9.08
2019-03-22T02:57:00.972Z,9.28
2019-03-22T02:58:19.673Z,9.98
2019-03-22T02:59:13.991Z,9.93
2019-03-22T03:00:19.758Z,8.98
2019-03-22T03:01:25.365Z,9.70
2019-03-22T03:02:31.367Z,9.10
2019-03-22T03:03:36.965Z,9.25
2019-03-22T03:04:42.498Z,9.55
2019-03-22T03:05:48.243Z,9.98
2019-03-22T03:06:54.020Z,9.48
2019-03-22T03:07:59.588Z,10.28
2019-03-22T03:09:06.215Z,10.18
2019-03-22T03:10:12.163Z,9.23
2019-03-22T03:11:17.797Z,9.38
2019-03-22T03:12:23.616Z,9.78
2019-03-22T03:13:29.193Z,9.48
2019-03-22T03:14:34.910Z,10.10
2019-03-22T03:15:40.588Z,9.78
2019-03-22T03:16:46.131Z,9.25
2019-03-22T03:17:51.780Z,10.23
2019-03-22T03:18:57.412Z,9.60
2019-03-22T03:20:02.974Z,9.30
2019-03-22T03:21:08.604Z,9.48
2019-03-22T03:22:14.227Z,9.00
2019-03-22T03:23:19.793Z,10.15
2019-03-22T03:24:25.438Z,9.45
2019-03-22T03:25:31.039Z,10.93
2019-03-22T03:26:36.580Z,10.05
2019-03-22T03:27:42.222Z,10.30
2019-03-22T03:28:47.853Z,9.13
2019-03-22T03:29:53.402Z,9.75
2019-03-22T03:30:58.973Z,9.58
2019-03-22T03:32:04.656Z,9.75
2019-03-22T03:33:10.222Z,9.28
2019-03-22T03:34:15.829Z,8.73
2019-03-22T03:35:21.470Z,9.58
2019-03-22T03:36:27.184Z,9.65
2019-03-22T03:37:33.068Z,9.90
2019-03-22T03:38:38.840Z,9.90
2019-03-22T03:39:44.446Z,9.20
2019-03-22T03:40:50.143Z,10.18
2019-03-22T03:41:55.756Z,9.60
2019-03-22T03:43:01.413Z,9.30
2019-03-22T03:44:07.061Z,10.00
2019-03-22T03:45:35.218Z,9.95
2019-03-22T03:46:41.180Z,9.73
2019-03-22T03:47:46.929Z,9.78
2019-03-22T03:48:52.889Z,10.15
2019-03-22T03:49:58.575Z,9.53
2019-03-22T03:51:04.196Z,9.05
2019-03-22T03:52:09.724Z,10.05
2019-03-22T03:53:15.488Z,9.45
2019-03-22T03:54:21.161Z,10.35
2019-03-22T03:55:26.892Z,10.85
2019-03-22T03:56:32.522Z,9.75
2019-03-22T03:57:38.085Z,9.40
2019-03-22T03:58:52.158Z,10.03
2019-03-22T03:59:51.021Z,9.50
2019-03-22T04:00:56.637Z,9.75
2019-03-22T04:02:02.204Z,9.80
2019-03-22T04:03:07.850Z,9.95
2019-03-22T04:04:13.571Z,9.63
2019-03-22T04:05:19.105Z,9.98
2019-03-22T04:06:25.825Z,9.38
2019-03-22T04:07:31.376Z,9.45
2019-03-22T04:08:36.951Z,9.70
2019-03-22T04:09:42.696Z,9.58
2019-03-22T04:10:48.336Z,9.80
2019-03-22T04:11:53.971Z,9.65
2019-03-22T04:12:59.525Z,10.00
2019-03-22T04:14:06.171Z,10.25
2019-03-22T04:15:11.906Z,9.68
2019-03-22T04:16:17.473Z,8.85
2019-03-22T04:17:23.149Z,9.03
2019-03-22T04:18:28.741Z,9.13
2019-03-22T04:19:34.313Z,9.78
2019-03-22T04:20:39.891Z,8.25
2019-03-22T04:21:45.479Z,9.70
2019-03-22T04:22:51.121Z,9.93
2019-03-22T04:23:57.126Z,10.10
2019-03-22T04:25:02.699Z,9.58
2019-03-22T04:26:08.360Z,9.90
2019-03-22T04:27:13.927Z,10.13
2019-03-22T04:28:19.785Z,10.10
2019-03-22T04:29:25.433Z,9.88
2019-03-22T04:30:31.024Z,10.43
2019-03-22T04:31:36.568Z,10.65
2019-03-22T04:32:43.223Z,10.10
2019-03-22T04:33:48.831Z,10.45
2019-03-22T04:34:55.601Z,10.35
2019-03-22T04:36:01.292Z,10.58
2019-03-22T04:37:06.878Z,9.85
2019-03-22T04:38:12.561Z,10.35
2019-03-22T04:39:18.134Z,9.98
2019-03-22T04:40:30.028Z,10.40
2019-03-22T04:41:35.604Z,10.20
2019-03-22T04:42:42.316Z,9.13
2019-03-22T04:43:47.986Z,10.60
2019-03-22T04:44:53.617Z,10.25
2019-03-22T04:45:59.388Z,10.32
2019-03-22T04:47:06.097Z,10.88
2019-03-22T04:48:19.065Z,10.55
2019-03-22T04:49:26.004Z,10.65
2019-03-22T04:50:34.111Z,11.18
2019-03-22T04:51:40.889Z,9.85
2019-03-22T04:52:46.610Z,10.08
2019-03-22T04:53:57.886Z,11.10
2019-03-22T04:55:04.696Z,10.70
2019-03-22T04:56:14.459Z,10.68
2019-03-22T04:57:22.181Z,10.70
2019-03-22T04:58:29.914Z,11.22
2019-03-22T04:59:36.464Z,10.43
2019-03-22T05:00:42.916Z,11.33
2019-03-22T05:01:50.493Z,9.53
2019-03-22T05:02:56.525Z,9.85
2019-03-22T05:04:04.035Z,9.98
2019-03-22T05:05:13.226Z,10.50
2019-03-22T05:06:20.489Z,10.63
2019-03-22T05:07:26.228Z,9.95
2019-03-22T05:08:35.008Z,11.12
2019-03-22T05:09:40.969Z,11.03
2019-03-22T05:10:46.795Z,11.08
2019-03-22T05:11:53.664Z,10.93
2019-03-22T05:13:02.535Z,10.48
2019-03-22T05:14:08.730Z,10.18
2019-03-22T05:15:15.693Z,10.55
2019-03-22T05:16:23.351Z,9.98
2019-03-22T05:17:30.214Z,10.63
2019-03-22T05:18:37.533Z,9.75
2019-03-22T05:19:47.508Z,10.55
2019-03-22T05:20:54.064Z,9.83
2019-03-22T05:22:02.155Z,10.03
2019-03-22T05:23:08.556Z,10.70
2019-03-22T05:24:18.294Z,9.83
2019-03-22T05:25:24.700Z,10.05
2019-03-22T05:26:32.432Z,9.50
2019-03-22T05:27:43.898Z,9.65
2019-03-22T05:28:50.637Z,9.58
2019-03-22T05:29:58.079Z,10.40
2019-03-22T05:31:23.880Z,11.65
2019-03-22T05:32:29.525Z,9.53
2019-03-22T05:33:35.066Z,9.75
2019-03-22T05:34:40.630Z,10.08
2019-03-22T05:35:46.250Z,10.23
2019-03-22T05:36:51.830Z,9.33
2019-03-22T05:37:58.573Z,9.13
2019-03-22T05:39:06.509Z,10.38
2019-03-22T05:40:12.123Z,10.85
2019-03-22T05:41:17.769Z,10.03
2019-03-22T05:42:23.428Z,10.08
2019-03-22T05:43:29.001Z,10.60
2019-03-22T05:44:34.819Z,8.20
2019-03-22T05:45:40.480Z,10.95
2019-03-22T05:46:46.064Z,9.10
2019-03-22T05:47:51.737Z,10.63
2019-03-22T05:48:57.290Z,9.23
2019-03-22T05:50:02.937Z,8.98
2019-03-22T05:51:08.473Z,9.10
2019-03-22T05:52:14.120Z,9.85
2019-03-22T05:53:19.821Z,8.50
2019-03-22T05:54:25.402Z,8.90
2019-03-22T05:55:31.176Z,8.40
2019-03-22T05:56:36.832Z,9.48
2019-03-22T05:57:42.555Z,8.70
2019-03-22T05:58:48.234Z,8.68
2019-03-22T05:59:53.809Z,8.15
2019-03-22T06:00:59.456Z,8.28
2019-03-22T06:02:05.319Z,8.45
2019-03-22T06:03:10.936Z,8.00
2019-03-22T06:04:16.577Z,7.35
2019-03-22T06:05:22.283Z,7.95
2019-03-22T06:06:27.871Z,9.38
2019-03-22T06:07:33.545Z,7.62
2019-03-22T06:08:39.250Z,8.58
2019-03-22T06:09:44.948Z,8.03
2019-03-22T06:10:50.493Z,8.80
2019-03-22T06:11:56.189Z,7.55
2019-03-22T06:13:01.865Z,7.70
2019-03-22T06:14:07.479Z,7.65
2019-03-22T06:15:14.193Z,6.92
2019-03-22T06:16:19.881Z,7.55
2019-03-22T06:17:25.499Z,7.70
2019-03-22T06:18:31.103Z,8.38
2019-03-22T06:19:37.908Z,8.08
2019-03-22T06:20:43.891Z,8.08
2019-03-22T06:21:49.541Z,7.60
2019-03-22T06:22:55.171Z,6.87
2019-03-22T06:24:00.773Z,7.40
2019-03-22T06:25:06.901Z,8.10
2019-03-22T06:26:12.579Z,7.35
2019-03-22T06:27:18.128Z,7.50
2019-03-22T06:28:24.755Z,7.90
2019-03-22T06:29:30.409Z,6.92
2019-03-22T06:30:35.980Z,7.87
2019-03-22T06:31:44.844Z,8.28
2019-03-22T06:32:50.402Z,9.35
2019-03-22T06:33:56.127Z,16.00
2019-03-22T06:35:01.706Z,11.10
2019-03-22T06:36:07.364Z,8.38
2019-03-22T06:37:12.960Z,9.55
2019-03-22T06:38:18.669Z,8.10
2019-03-22T06:39:24.285Z,7.08
2019-03-22T06:40:29.905Z,8.15
2019-03-22T06:41:35.545Z,8.28
2019-03-22T06:42:41.408Z,8.55
2019-03-22T06:43:47.147Z,8.53
2019-03-22T06:44:52.816Z,8.85
2019-03-22T06:45:58.492Z,9.05
2019-03-22T06:47:04.111Z,8.13
2019-03-22T06:48:09.719Z,8.80
2019-03-22T06:49:15.368Z,9.25
2019-03-22T06:50:21.038Z,8.40
2019-03-22T06:51:26.580Z,8.00
2019-03-22T06:52:32.233Z,7.35
2019-03-22T06:53:40.077Z,8.80
2019-03-22T06:54:45.683Z,9.08
2019-03-22T06:55:51.278Z,8.05
2019-03-22T06:56:56.934Z,8.70
2019-03-22T06:58:02.637Z,8.85
2019-03-22T06:59:08.296Z,9.75
2019-03-22T07:00:13.877Z,10.38
2019-03-22T07:01:19.447Z,9.00
2019-03-22T07:02:25.015Z,8.58
2019-03-22T07:03:30.646Z,8.60
2019-03-22T07:04:36.210Z,7.95
2019-03-22T07:05:41.901Z,9.25
2019-03-22T07:06:47.449Z,9.35
2019-03-22T07:07:53.054Z,9.50
2019-03-22T07:08:58.654Z,10.65
2019-03-22T07:10:04.928Z,9.70
2019-03-22T07:11:10.597Z,10.45
2019-03-22T07:12:16.179Z,10.35
2019-03-22T07:13:21.796Z,9.63
2019-03-22T07:14:27.497Z,11.48
2019-03-22T07:15:33.127Z,10.78
2019-03-22T07:16:38.778Z,10.03
2019-03-22T07:17:44.333Z,10.20
2019-03-22T07:18:49.913Z,11.12
2019-03-22T07:19:55.533Z,10.72
2019-03-22T07:21:01.150Z,10.60
2019-03-22T07:22:06.721Z,11.22
2019-03-22T07:23:12.305Z,11.65
2019-03-22T07:24:18.015Z,12.60
2019-03-22T07:25:23.685Z,11.08
2019-03-22T07:26:30.178Z,11.22
2019-03-22T07:27:35.869Z,10.85
2019-03-22T07:28:41.501Z,11.28
2019-03-22T07:29:47.112Z,11.12
2019-03-22T07:30:52.778Z,10.23
2019-03-22T07:31:58.407Z,9.88
2019-03-22T07:33:04.054Z,9.88
2019-03-22T07:34:09.593Z,10.72
2019-03-22T07:35:15.207Z,10.65
2019-03-22T07:36:20.840Z,11.45
2019-03-22T07:37:26.385Z,11.05
2019-03-22T07:38:32.117Z,10.95
2019-03-22T07:39:37.693Z,10.85
2019-03-22T07:40:43.316Z,11.83
2019-03-22T07:41:48.972Z,10.25
2019-03-22T07:42:54.697Z,10.38
2019-03-22T07:44:00.255Z,11.43
2019-03-22T07:45:06.136Z,10.40
2019-03-22T07:46:11.786Z,9.25
2019-03-22T07:47:17.400Z,11.40
2019-03-22T07:48:23.081Z,12.95
2019-03-22T07:49:28.649Z,12.15
2019-03-22T07:50:34.270Z,15.15
2019-03-22T07:51:39.941Z,15.78
2019-03-22T07:52:45.584Z,16.00
2019-03-22T07:53:51.240Z,15.40
2019-03-22T07:54:56.870Z,16.23
2019-03-22T07:56:02.493Z,15.10
2019-03-22T07:57:08.226Z,15.53
2019-03-22T07:58:13.860Z,15.70
2019-03-22T07:59:19.564Z,15.28
2019-03-22T08:00:30.603Z,14.93
2019-03-22T08:01:32.756Z,14.73
2019-03-22T08:02:38.345Z,14.70
2019-03-22T08:03:43.997Z,12.98
2019-03-22T08:04:49.571Z,13.30
2019-03-22T08:06:14.025Z,13.35
2019-03-22T08:07:30.942Z,13.38
2019-03-22T08:08:47.476Z,11.48
2019-03-22T08:10:03.925Z,11.25
2019-03-22T08:11:24.591Z,12.23
2019-03-22T08:12:40.360Z,11.97
2019-03-22T08:13:56.784Z,11.60
2019-03-22T08:15:13.445Z,12.65
2019-03-22T08:16:29.794Z,12.75
2019-03-22T08:17:46.371Z,11.53
2019-03-22T08:19:03.566Z,10.90
2019-03-22T08:20:20.245Z,11.15
2019-03-22T08:21:36.784Z,10.90
2019-03-22T08:22:53.461Z,10.48
2019-03-22T08:24:10.535Z,11.05
2019-03-22T08:25:27.083Z,9.58
2019-03-22T08:26:43.557Z,11.00
2019-03-22T08:28:00.214Z,11.03
2019-03-22T08:29:17.317Z,11.25
2019-03-22T08:30:42.574Z,11.25
2019-03-22T08:31:52.586Z,11.53
2019-03-22T08:33:09.235Z,11.18
2019-03-22T08:34:25.646Z,11.57
2019-03-22T08:35:42.268Z,10.38
2019-03-22T08:36:58.935Z,11.35
2019-03-22T08:38:17.537Z,12.40
2019-03-22T08:39:33.957Z,10.70
2019-03-22T08:40:50.712Z,10.30
2019-03-22T08:42:07.135Z,11.03
2019-03-22T08:43:24.254Z,11.43
2019-03-22T08:44:41.724Z,12.40
2019-03-22T08:45:58.690Z,11.15
2019-03-22T08:47:15.353Z,11.57
2019-03-22T08:48:32.528Z,10.80
2019-03-22T08:49:49.131Z,10.95
2019-03-22T08:51:05.709Z,11.53
2019-03-22T08:52:22.407Z,11.30
2019-03-22T08:53:38.706Z,11.80
2019-03-22T08:54:55.332Z,11.12
2019-03-22T08:56:12.372Z,11.38
2019-03-22T08:57:28.997Z,10.75
2019-03-22T08:58:45.565Z,11.93
2019-03-22T09:00:02.251Z,11.95
2019-03-22T09:01:19.374Z,10.72
2019-03-22T09:02:35.897Z,11.05
2019-03-22T09:03:52.414Z,13.00
2019-03-22T09:05:09.200Z,11.85
2019-03-22T09:06:29.731Z,11.38
2019-03-22T09:07:46.949Z,12.15
2019-03-22T09:09:05.087Z,12.23
2019-03-22T09:10:21.732Z,13.15
2019-03-22T09:11:38.049Z,11.68
2019-03-22T09:12:54.578Z,13.08
2019-03-22T09:14:11.882Z,13.35
2019-03-22T09:15:36.107Z,12.10
2019-03-22T09:16:47.086Z,12.68
2019-03-22T09:18:04.469Z,12.55
2019-03-22T09:19:21.167Z,12.25
2019-03-22T09:20:38.403Z,12.65
2019-03-22T09:21:54.932Z,12.73
2019-03-22T09:23:11.486Z,12.98
2019-03-22T09:24:38.516Z,13.45
2019-03-22T09:25:46.768Z,12.10
2019-03-22T09:27:03.947Z,14.00
2019-03-22T09:28:20.574Z,12.25
2019-03-22T09:29:37.107Z,12.93
2019-03-22T09:30:53.848Z,12.82
2019-03-22T09:32:10.922Z,14.28
2019-03-22T09:33:27.739Z,12.53
2019-03-22T09:34:44.846Z,13.62
2019-03-22T09:36:01.446Z,13.55
2019-03-22T09:37:17.814Z,12.95
2019-03-22T09:38:34.885Z,13.75
2019-03-22T09:39:51.305Z,13.53
2019-03-22T09:41:07.902Z,12.95
2019-03-22T09:42:24.422Z,13.00
2019-03-22T09:43:41.083Z,12.80
2019-03-22T09:44:57.796Z,12.58
2019-03-22T09:46:14.417Z,13.43
2019-03-22T09:47:31.502Z,11.55
2019-03-22T09:48:47.830Z,12.10
2019-03-22T09:50:04.525Z,12.70
2019-03-22T09:51:21.081Z,12.15
2019-03-22T09:52:38.107Z,13.18
2019-03-22T09:53:55.184Z,12.80
2019-03-22T09:55:14.107Z,12.88
2019-03-22T09:56:30.278Z,12.88
2019-03-22T09:57:49.333Z,12.65
2019-03-22T09:59:05.169Z,12.50
2019-03-22T10:00:21.684Z,12.15
2019-03-22T10:01:38.343Z,11.73
2019-03-22T10:02:55.772Z,13.95
2019-03-22T10:04:12.135Z,13.20
2019-03-22T10:05:28.457Z,12.65
2019-03-22T10:06:45.307Z,13.05
2019-03-22T10:08:02.714Z,12.70
2019-03-22T10:09:20.325Z,13.38
2019-03-22T10:10:36.787Z,14.90
2019-03-22T10:11:53.840Z,13.80
2019-03-22T10:13:10.455Z,14.50
2019-03-22T10:14:27.031Z,14.18
2019-03-22T10:15:43.324Z,13.60
2019-03-22T10:17:00.008Z,14.63
2019-03-22T10:18:17.018Z,14.58
2019-03-22T10:19:33.338Z,14.05
2019-03-22T10:20:49.834Z,13.78
2019-03-22T10:22:05.431Z,13.83
2019-03-22T10:23:29.841Z,14.33
2019-03-22T10:24:46.613Z,14.58
2019-03-22T10:26:03.657Z,15.08
2019-03-22T10:27:20.042Z,14.13
2019-03-22T10:28:36.405Z,13.05
2019-03-22T10:29:52.881Z,14.80
2019-03-22T10:31:09.477Z,14.23
2019-03-22T10:32:26.668Z,14.93
2019-03-22T10:33:43.200Z,13.88
2019-03-22T10:35:00.378Z,13.00
2019-03-22T10:36:17.214Z,14.83
2019-03-22T10:37:34.502Z,14.00
2019-03-22T10:38:51.453Z,13.43
2019-03-22T10:40:08.414Z,14.58
2019-03-22T10:41:25.381Z,14.50
2019-03-22T10:42:41.880Z,13.40
2019-03-22T10:43:58.609Z,14.00
2019-03-22T10:45:17.837Z,15.20
2019-03-22T10:46:34.562Z,13.88
2019-03-22T10:47:52.209Z,14.60
2019-03-22T10:49:08.617Z,14.00
2019-03-22T10:50:25.332Z,13.93
2019-03-22T10:51:41.705Z,13.62
2019-03-22T10:52:58.094Z,13.58
2019-03-22T10:54:14.486Z,12.90
2019-03-22T10:55:31.612Z,13.50
2019-03-22T10:56:48.171Z,13.13
2019-03-22T10:58:19.819Z,14.38
2019-03-22T10:59:24.181Z,13.25
2019-03-22T11:00:40.665Z,13.28
2019-03-22T11:02:03.377Z,13.05
2019-03-22T11:03:15.953Z,13.35
2019-03-22T11:04:31.418Z,13.35
2019-03-22T11:07:32.365Z,12.90
2019-03-22T11:08:48.779Z,13.38
2019-03-22T11:10:05.442Z,12.90
2019-03-22T11:11:21.994Z,13.00
2019-03-22T11:12:38.548Z,13.22
2019-03-22T11:13:55.838Z,12.65
2019-03-22T11:15:12.550Z,12.10
2019-03-22T11:16:28.934Z,11.83
2019-03-22T11:17:46.273Z,11.40
2019-03-22T11:19:02.724Z,11.90
2019-03-22T11:20:19.225Z,11.35
2019-03-22T11:21:35.533Z,12.43
2019-03-22T11:22:52.033Z,11.45
2019-03-22T11:24:08.656Z,13.68
2019-03-22T11:25:25.056Z,11.60
2019-03-22T11:26:41.557Z,11.25
2019-03-22T11:27:58.160Z,12.20
2019-03-22T11:29:15.257Z,10.90
2019-03-22T11:30:31.664Z,11.45
2019-03-22T11:31:48.274Z,11.80
2019-03-22T11:33:04.868Z,11.15
2019-03-22T11:34:21.310Z,11.80
2019-03-22T11:35:37.903Z,12.15
2019-03-22T11:36:54.315Z,11.08
2019-03-22T11:38:11.147Z,11.70
2019-03-22T11:39:28.107Z,12.18
2019-03-22T11:40:44.584Z,12.35
2019-03-22T11:42:01.822Z,11.90
2019-03-22T11:43:18.934Z,10.58
2019-03-22T11:44:35.437Z,10.60
2019-03-22T11:45:51.936Z,11.12
2019-03-22T11:47:09.615Z,10.25
2019-03-22T11:48:25.976Z,11.20
2019-03-22T11:49:42.239Z,10.58
2019-03-22T11:50:59.234Z,10.53
2019-03-22T11:52:15.721Z,9.33
2019-03-22T11:53:32.318Z,10.50
2019-03-22T11:54:48.853Z,9.25
2019-03-22T11:56:05.325Z,11.05
2019-03-22T11:57:22.502Z,10.15
2019-03-22T11:58:39.370Z,10.15
2019-03-22T11:59:56.016Z,9.70
2019-03-22T12:01:19.266Z,10.05
2019-03-22T12:02:37.553Z,9.65
2019-03-22T12:03:54.003Z,9.90
2019-03-22T12:05:10.763Z,8.65
2019-03-22T12:06:27.391Z,8.05
2019-03-22T12:07:43.950Z,9.30
2019-03-22T12:09:01.070Z,9.10
2019-03-22T12:10:19.316Z,8.10
2019-03-22T12:11:35.862Z,8.53
2019-03-22T12:12:52.317Z,9.88
2019-03-22T12:14:09.353Z,10.20
2019-03-22T12:15:26.058Z,11.30
2019-03-22T12:16:43.109Z,7.87
2019-03-22T12:17:59.508Z,10.60
2019-03-22T12:19:15.752Z,9.43
2019-03-22T12:20:32.337Z,9.85
2019-03-22T12:21:49.553Z,9.58
2019-03-22T12:23:05.960Z,9.83
2019-03-22T12:24:21.431Z,9.65
2019-03-22T12:25:41.605Z,10.50
2019-03-22T12:26:57.999Z,9.50
2019-03-22T12:28:14.687Z,7.60
2019-03-22T12:29:31.554Z,9.30
2019-03-22T12:30:47.982Z,8.95
2019-03-22T12:32:04.662Z,9.63
2019-03-22T12:33:21.182Z,9.23
2019-03-22T12:34:37.560Z,10.10
2019-03-22T12:35:54.782Z,10.30
2019-03-22T12:37:11.556Z,10.43
2019-03-22T12:38:27.951Z,10.70
2019-03-22T12:39:44.491Z,9.93
2019-03-22T12:41:00.924Z,9.53
2019-03-22T12:42:17.396Z,9.95
2019-03-22T12:43:34.289Z,9.80
2019-03-22T12:44:50.914Z,9.70
2019-03-22T12:46:08.162Z,9.38
2019-03-22T12:47:24.893Z,9.20
2019-03-22T12:48:41.444Z,10.30
2019-03-22T12:49:57.829Z,10.35
2019-03-22T12:51:14.408Z,9.63
2019-03-22T12:52:31.433Z,9.78
2019-03-22T12:53:47.898Z,9.70
2019-03-22T12:55:04.186Z,9.30
2019-03-22T12:56:21.374Z,8.38
2019-03-22T12:57:38.614Z,9.83
2019-03-22T12:58:55.602Z,8.80
2019-03-22T13:00:12.568Z,9.55
2019-03-22T13:01:37.047Z,8.93
2019-03-22T13:03:01.500Z,8.30
2019-03-22T13:04:18.613Z,8.88
2019-03-22T13:05:35.273Z,9.60
2019-03-22T13:06:53.216Z,8.50
2019-03-22T13:08:09.704Z,8.40
2019-03-22T13:09:26.973Z,8.98
2019-03-22T13:10:43.815Z,8.93
2019-03-22T13:12:00.475Z,9.05
2019-03-22T13:13:17.083Z,9.00
2019-03-22T13:14:33.539Z,8.70
2019-03-22T13:15:49.966Z,8.35
2019-03-22T13:17:06.396Z,8.55
2019-03-22T13:18:22.844Z,8.88
2019-03-22T13:19:40.063Z,8.35
2019-03-22T13:20:56.949Z,8.75
2019-03-22T13:22:13.349Z,9.25
2019-03-22T13:23:30.834Z,8.43
2019-03-22T13:24:47.736Z,8.95
2019-03-22T13:26:03.158Z,8.55
2019-03-22T13:27:27.535Z,8.45
2019-03-22T13:28:51.958Z,9.08
2019-03-22T13:30:08.966Z,7.60
2019-03-22T13:31:25.460Z,9.50
2019-03-22T13:32:51.826Z,8.80
2019-03-22T13:34:00.347Z,8.20
2019-03-22T13:35:17.504Z,8.95
2019-03-22T13:36:34.424Z,7.87
2019-03-22T13:37:51.051Z,7.80
2019-03-22T13:39:07.976Z,8.38
2019-03-22T13:40:25.153Z,8.23
2019-03-22T13:41:41.842Z,7.80
2019-03-22T13:42:58.182Z,8.08
2019-03-22T13:44:15.548Z,7.45
2019-03-22T13:45:32.090Z,8.00
2019-03-22T13:46:49.968Z,7.53
2019-03-22T13:48:06.565Z,7.12
2019-03-22T13:49:23.353Z,8.35
2019-03-22T13:50:39.794Z,8.78
2019-03-22T13:51:56.792Z,6.85
2019-03-22T13:53:14.098Z,8.20
2019-03-22T13:54:31.317Z,8.40
2019-03-22T13:55:47.771Z,8.30
2019-03-22T13:57:04.040Z,7.35
2019-03-22T13:58:20.642Z,8.18
2019-03-22T13:59:37.993Z,7.17
2019-03-22T14:00:55.182Z,7.92
2019-03-22T14:02:11.913Z,7.78
2019-03-22T14:03:28.245Z,7.70
2019-03-22T14:04:45.450Z,7.47
2019-03-22T14:06:02.487Z,7.95
2019-03-22T14:07:19.225Z,7.85
2019-03-22T14:08:36.522Z,7.62
2019-03-22T14:09:53.789Z,6.92
2019-03-22T14:11:10.374Z,6.67
2019-03-22T14:12:36.637Z,7.33
2019-03-22T14:13:45.502Z,7.42
2019-03-22T14:15:02.001Z,6.80
2019-03-22T14:16:26.459Z,7.70
2019-03-22T14:17:42.855Z,7.28
2019-03-22T14:19:00.128Z,8.20
2019-03-22T14:20:17.930Z,7.60
2019-03-22T14:21:35.055Z,7.17
2019-03-22T14:22:53.950Z,7.30
2019-03-22T14:24:10.937Z,7.40
2019-03-22T14:25:27.302Z,7.42
2019-03-22T14:26:43.710Z,7.28
2019-03-22T14:28:00.273Z,7.30
2019-03-22T14:29:16.728Z,7.90
2019-03-22T14:30:33.675Z,9.18
2019-03-22T14:31:50.291Z,8.00
2019-03-22T14:33:13.236Z,8.70
2019-03-22T14:34:25.187Z,6.97
2019-03-22T14:35:42.313Z,7.55
2019-03-22T14:36:58.729Z,7.45
2019-03-22T14:38:15.093Z,7.20
2019-03-22T14:39:31.581Z,6.90
2019-03-22T14:40:48.348Z,7.35
2019-03-22T14:42:04.784Z,7.20
2019-03-22T14:43:21.410Z,6.47
2019-03-22T14:44:38.682Z,7.40
2019-03-22T14:45:55.334Z,6.30
2019-03-22T14:47:13.080Z,6.97
2019-03-22T14:48:29.782Z,7.42
2019-03-22T14:49:46.676Z,6.90
2019-03-22T14:51:03.247Z,6.95
2019-03-22T14:52:19.938Z,7.22
2019-03-22T14:53:37.244Z,7.47
2019-03-22T14:54:53.949Z,6.20
2019-03-22T14:56:10.777Z,7.12
2019-03-22T14:57:27.208Z,7.62
2019-03-22T14:58:43.606Z,7.12
2019-03-22T15:00:00.813Z,7.17
2019-03-22T15:01:17.379Z,6.25
2019-03-22T15:02:33.913Z,6.92
2019-03-22T15:03:51.268Z,7.25
2019-03-22T15:05:07.948Z,6.80
2019-03-22T15:06:24.725Z,7.30
2019-03-22T15:07:41.174Z,5.85
2019-03-22T15:08:57.500Z,6.75
2019-03-22T15:10:14.046Z,6.10
2019-03-22T15:11:30.441Z,6.33
2019-03-22T15:12:47.036Z,5.90
2019-03-22T15:16:15.398Z,6.25
2019-03-22T15:17:50.756Z,6.03
2019-03-22T15:19:26.418Z,6.28
2019-03-22T15:22:44.429Z,6.00
2019-03-22T15:24:27.776Z,5.90
2019-03-22T15:26:03.108Z,6.22
2019-03-22T15:27:41.506Z,6.00
2019-03-22T15:29:18.566Z,6.00
2019-03-22T15:31:10.145Z,5.78
2019-03-22T15:32:45.670Z,5.00
2019-03-22T15:34:20.997Z,5.67
2019-03-22T15:35:47.267Z,5.53
2019-03-22T15:37:22.889Z,5.80
2019-03-22T15:39:04.904Z,5.90
2019-03-22T15:40:42.714Z,5.90